Time;durP1;ratioP1;P1;durP2;ratioP2;P2;SDS_P1;SDS_P2;PMS_P1;PMS_P2;Temp;Humidity;BMP_temperature;BMP_pressure;BME280_temperature;BME280_humidity;BME280_pressure;Samples;Min_cycle;Max_cycle;Signal;HPM_P1;HPM_P2
2022/05/06 00:02:24;;;;;;;6.03;1.50;;;15.40;53.10;;;;;;6309752;22;20022;-67
2022/05/06 00:04:51;;;;;;;4.65;1.25;;;15.50;53.60;;;;;;6309025;22;20003;-67
2022/05/06 00:07:19;;;;;;;6.10;1.38;;;15.50;54.40;;;;;;6284147;22;20049;-67
2022/05/06 00:09:46;;;;;;;4.63;1.23;;;15.60;52.50;;;;;;6309413;22;19999;-67
2022/05/06 00:12:17;;;;;;;2.17;1.10;;;15.60;52.20;;;;;;6310026;22;20440;-67
2022/05/06 00:14:45;;;;;;;3.05;1.23;;;15.60;52.10;;;;;;6310250;22;20011;-67
2022/05/06 00:17:12;;;;;;;2.72;1.45;;;15.60;52.50;;;;;;6309850;22;20010;-66
2022/05/06 00:19:39;;;;;;;6.07;1.40;;;15.60;52.50;;;;;;6309612;22;20045;-67
2022/05/06 00:22:07;;;;;;;6.18;1.30;;;15.70;52.20;;;;;;6337140;22;20413;-67
2022/05/06 00:24:34;;;;;;;4.70;1.23;;;15.70;51.20;;;;;;6309363;22;20003;-67
2022/05/06 00:27:01;;;;;;;3.75;1.40;;;15.70;52.10;;;;;;6310134;22;19998;-67
2022/05/06 00:29:28;;;;;;;7.97;1.63;;;15.70;51.70;;;;;;6308988;22;19998;-67
2022/05/06 00:31:56;;;;;;;14.75;1.70;;;15.70;51.00;;;;;;6309793;22;20026;-67
2022/05/06 00:34:24;;;;;;;6.90;1.40;;;15.70;51.60;;;;;;6309423;22;20313;-67
2022/05/06 00:36:51;;;;;;;4.70;1.45;;;15.70;51.60;;;;;;6309964;22;20071;-66
2022/05/06 00:39:18;;;;;;;6.57;1.80;;;15.70;50.50;;;;;;6283986;22;20078;-66
2022/05/06 00:41:45;;;;;;;6.35;1.70;;;15.80;50.40;;;;;;6309318;22;20017;-67
2022/05/06 00:44:12;;;;;;;3.50;1.52;;;15.80;50.90;;;;;;6309465;22;20318;-67
2022/05/06 00:46:39;;;;;;;6.65;1.67;;;15.80;51.60;;;;;;6336938;22;20451;-67
2022/05/06 00:49:11;;;;;;;2.40;1.20;;;15.80;51.90;;;;;;6336636;22;20007;-66
2022/05/06 00:51:39;;;;;;;2.83;1.17;;;15.80;50.90;;;;;;6283455;22;20044;-67
2022/05/06 00:54:06;;;;;;;4.18;1.70;;;15.90;50.70;;;;;;6258056;22;19998;-67
2022/05/06 00:56:33;;;;;;;5.97;1.52;;;15.90;50.80;;;;;;6309459;22;20055;-67
2022/05/06 00:59:01;;;;;;;6.63;1.50;;;15.90;51.00;;;;;;6284045;22;20070;-66
2022/05/06 01:01:29;;;;;;;5.18;1.48;;;16.00;51.40;;;;;;6283651;22;20490;-66
2022/05/06 01:03:57;;;;;;;9.27;1.40;;;16.00;49.90;;;;;;6309479;22;20026;-67
2022/05/06 01:06:24;;;;;;;1.85;1.20;;;16.00;49.00;;;;;;6283682;22;20003;-67
2022/05/06 01:08:52;;;;;;;4.32;1.08;;;16.00;48.70;;;;;;6309513;22;20010;-67
2022/05/06 01:11:19;;;;;;;4.00;1.40;;;16.00;49.40;;;;;;6310617;22;20002;-67
2022/05/06 01:13:47;;;;;;;1.70;1.15;;;16.10;49.60;;;;;;6310942;22;20082;-67
2022/05/06 01:16:14;;;;;;;2.05;1.23;;;16.10;49.00;;;;;;6338539;22;19999;-66
2022/05/06 01:18:42;;;;;;;5.75;1.50;;;16.10;49.10;;;;;;6311169;22;19998;-67
2022/05/06 01:21:09;;;;;;;2.72;1.10;;;16.10;49.50;;;;;;6311528;22;19995;-66
2022/05/06 01:23:37;;;;;;;6.30;1.83;;;16.20;50.10;;;;;;6338514;22;20011;-67
2022/05/06 01:26:05;;;;;;;7.80;1.48;;;16.10;49.70;;;;;;6338854;22;19999;-67
2022/05/06 01:28:35;;;;;;;8.27;1.33;;;16.20;49.70;;;;;;6338804;22;20026;-67
2022/05/06 01:31:02;;;;;;;2.60;1.10;;;16.20;49.40;;;;;;6285534;22;20098;-67
2022/05/06 01:33:32;;;;;;;3.70;1.17;;;16.20;48.90;;;;;;6285483;22;20102;-67
2022/05/06 01:36:02;;;;;;;3.03;0.80;;;16.20;49.50;;;;;;6260621;22;20441;-67
2022/05/06 01:38:42;;;;;;;2.77;1.20;;;16.30;49.60;;;;;;6338697;22;20001;-67
2022/05/06 01:41:23;;;;;;;5.57;1.30;;;16.30;48.80;;;;;;6310335;22;20531;-66
2022/05/06 01:44:00;;;;;;;3.60;1.00;;;16.30;48.90;;;;;;6338156;22;20002;-67
2022/05/06 01:46:28;;;;;;;6.05;1.10;;;16.30;48.40;;;;;;6312467;22;20014;-67
2022/05/06 01:48:55;;;;;;;2.10;0.95;;;16.30;48.10;;;;;;6285206;22;20011;-67
2022/05/06 01:51:23;;;;;;;3.83;1.20;;;16.30;47.20;;;;;;6338075;22;20318;-67
2022/05/06 01:53:52;;;;;;;5.70;1.00;;;16.40;47.10;;;;;;6311041;22;20399;-67
2022/05/06 01:56:19;;;;;;;2.92;1.20;;;16.40;47.80;;;;;;6311500;22;20298;-67
2022/05/06 01:58:50;;;;;;;2.28;1.17;;;16.40;48.50;;;;;;6338355;22;20044;-67
2022/05/06 02:01:16;;;;;;;;;;;16.40;48.80;;;;;;6338511;22;19999;-67
2022/05/06 02:06:29;;;;;;;3.17;1.27;;;16.50;48.80;;;;;;6315305;22;20017;-67
2022/05/06 02:08:56;;;;;;;2.70;1.40;;;16.50;48.90;;;;;;6285411;22;20009;-67
2022/05/06 02:11:23;;;;;;;2.42;1.02;;;16.60;48.50;;;;;;6338151;22;20010;-66
2022/05/06 02:13:50;;;;;;;4.57;1.10;;;16.60;48.20;;;;;;6310970;22;20021;-67
2022/05/06 02:16:19;;;;;;;4.20;1.55;;;16.60;47.90;;;;;;6310222;22;20007;-67
2022/05/06 02:18:46;;;;;;;3.72;1.58;;;16.60;49.00;;;;;;6285127;22;20002;-67
2022/05/06 02:21:13;;;;;;;5.97;1.17;;;16.60;49.60;;;;;;6310724;22;20486;-68
2022/05/06 02:23:40;;;;;;;3.78;1.40;;;16.60;49.10;;;;;;6310799;22;20045;-67
2022/05/06 02:26:07;;;;;;;6.75;1.30;;;16.60;50.40;;;;;;6310710;22;20074;-68
2022/05/06 02:28:35;;;;;;;3.20;1.10;;;16.60;49.50;;;;;;6310419;22;20003;-67
2022/05/06 02:33:47;;;;;;;1.52;1.00;;;16.70;48.90;;;;;;6337335;22;20057;-67
2022/05/06 02:36:14;;;;;;;3.85;0.95;;;16.70;49.90;;;;;;6310334;22;20003;-67
2022/05/06 02:38:41;;;;;;;2.55;1.13;;;16.60;49.60;;;;;;6311039;22;20002;-67
2022/05/06 02:41:09;;;;;;;1.60;1.00;;;16.60;49.90;;;;;;6337924;22;20026;-67
2022/05/06 02:43:37;;;;;;;3.83;1.35;;;16.70;49.50;;;;;;6284909;22;20523;-67
2022/05/06 02:46:04;;;;;;;2.67;1.23;;;16.70;48.50;;;;;;6310894;22;20371;-67
2022/05/06 02:48:31;;;;;;;3.17;1.02;;;16.70;48.60;;;;;;6310980;22;19999;-67
2022/05/06 02:50:58;;;;;;;4.03;1.30;;;16.70;48.40;;;;;;6284692;22;20090;-67
2022/05/06 02:53:26;;;;;;;2.08;1.20;;;16.70;49.30;;;;;;6310657;22;20071;-67
2022/05/06 02:55:53;;;;;;;4.43;1.23;;;16.70;48.90;;;;;;6337821;22;19991;-67
2022/05/06 02:58:20;;;;;;;1.63;1.08;;;16.80;47.60;;;;;;6338433;22;20011;-67
2022/05/06 03:00:47;;;;;;;3.53;1.10;;;16.80;48.70;;;;;;6310599;22;20123;-67
2022/05/06 03:03:15;;;;;;;1.80;1.20;;;16.80;46.70;;;;;;6310075;22;20378;-67
2022/05/06 03:05:42;;;;;;;2.10;0.90;;;16.80;45.70;;;;;;6310094;22;20333;-67
2022/05/06 03:08:09;;;;;;;3.08;1.05;;;16.80;46.70;;;;;;6285006;22;20441;-67
2022/05/06 03:10:36;;;;;;;3.03;1.13;;;16.80;46.70;;;;;;6310281;22;20090;-67
2022/05/06 03:13:04;;;;;;;3.17;1.10;;;16.80;45.70;;;;;;6310295;22;20486;-67
2022/05/06 03:15:31;;;;;;;1.02;0.85;;;16.90;45.40;;;;;;6309312;22;20018;-67
2022/05/06 03:17:59;;;;;;;4.47;1.27;;;17.00;45.50;;;;;;6337787;22;20377;-67
2022/05/06 03:20:26;;;;;;;1.73;0.90;;;17.00;46.50;;;;;;6337633;22;20006;-67
2022/05/06 03:22:54;;;;;;;4.55;1.30;;;16.90;45.90;;;;;;6310590;22;20063;-67
2022/05/06 03:25:21;;;;;;;2.22;1.10;;;17.00;46.60;;;;;;6337536;22;20015;-67
2022/05/06 03:28:01;;;;;;;2.83;1.08;;;17.00;47.10;;;;;;6309955;22;20077;-68
2022/05/06 03:30:37;;;;;;;8.88;1.88;;;17.00;46.60;;;;;;6287258;22;20009;-67
2022/05/06 03:33:04;;;;;;;8.38;1.90;;;17.00;45.70;;;;;;6337142;22;20003;-67
2022/05/06 03:35:33;;;;;;;7.85;1.98;;;16.90;48.60;;;;;;6309359;22;20332;-67
2022/05/06 03:38:00;;;;;;;3.78;1.40;;;16.90;46.50;;;;;;6284089;22;20003;-67
2022/05/06 03:40:28;;;;;;;4.32;1.50;;;16.90;46.00;;;;;;6309464;22;20379;-67
2022/05/06 03:42:55;;;;;;;3.88;1.35;;;17.00;45.90;;;;;;6309868;22;20010;-67
2022/05/06 03:45:22;;;;;;;5.68;1.48;;;17.00;47.20;;;;;;6337426;22;19994;-68
2022/05/06 03:47:49;;;;;;;2.10;1.00;;;17.00;46.80;;;;;;6284026;22;20421;-67
2022/05/06 03:53:02;;;;;;;7.45;1.40;;;17.10;45.00;;;;;;6314302;22;20391;-67
2022/05/06 03:55:29;;;;;;;5.07;1.30;;;17.10;46.10;;;;;;6337357;22;20005;-67
2022/05/06 03:57:56;;;;;;;4.35;1.25;;;17.10;44.80;;;;;;6310419;22;20073;-67
2022/05/06 04:00:23;;;;;;;2.78;1.15;;;17.10;44.30;;;;;;6337137;22;20003;-67
2022/05/06 04:02:51;;;;;;;3.22;1.23;;;17.10;44.70;;;;;;6284229;22;20019;-67
2022/05/06 04:05:18;;;;;;;5.72;1.52;;;17.10;44.30;;;;;;6309282;22;20421;-67
2022/05/06 04:07:45;;;;;;;20.70;12.13;;;17.10;46.40;;;;;;6309563;22;20002;-67
2022/05/06 04:10:12;;;;;;;5.55;2.45;;;17.10;46.50;;;;;;6309888;22;20465;-67
2022/05/06 04:12:39;;;;;;;2.60;1.73;;;17.10;45.00;;;;;;6309912;22;20002;-67
2022/05/06 04:15:08;;;;;;;2.85;1.33;;;17.10;45.80;;;;;;6309375;22;20031;-67
2022/05/06 04:17:35;;;;;;;3.33;1.02;;;17.10;45.30;;;;;;6284299;22;20053;-67
2022/05/06 04:25:35;;;;;;;2.97;1.25;;;17.10;45.90;;;;;;6313953;22;20068;-67
2022/05/06 04:28:02;;;;;;;1.95;1.00;;;17.10;46.60;;;;;;6283597;22;20433;-67
2022/05/06 04:30:30;;;;;;;11.88;1.40;;;17.10;44.70;;;;;;6309433;22;20307;-67
2022/05/06 04:32:57;;;;;;;2.08;1.15;;;17.10;44.40;;;;;;6309827;22;20003;-67
2022/05/06 04:35:24;;;;;;;3.72;1.20;;;17.20;44.40;;;;;;6283782;22;20350;-67
2022/05/06 04:37:52;;;;;;;3.78;1.35;;;17.10;44.70;;;;;;6310058;22;20026;-67
2022/05/06 04:40:19;;;;;;;4.03;1.42;;;17.20;46.40;;;;;;6309781;22;20003;-67
2022/05/06 04:42:46;;;;;;;5.32;1.20;;;17.10;45.40;;;;;;6309765;22;20011;-67
2022/05/06 04:45:13;;;;;;;5.05;1.08;;;17.10;45.80;;;;;;6309428;22;19998;-67
2022/05/06 04:47:40;;;;;;;2.83;1.17;;;17.20;45.50;;;;;;6283642;22;20002;-67
2022/05/06 04:50:08;;;;;;;4.28;1.33;;;17.20;44.80;;;;;;6309862;22;20093;-67
2022/05/06 04:52:35;;;;;;;2.55;1.30;;;17.20;44.20;;;;;;6336573;22;20393;-67
2022/05/06 04:55:03;;;;;;;5.03;1.23;;;17.20;45.20;;;;;;6309282;22;20337;-67
2022/05/06 04:57:30;;;;;;;1.90;1.10;;;17.20;44.20;;;;;;6283009;22;20007;-67
2022/05/06 04:59:57;;;;;;;3.00;1.10;;;17.20;43.80;;;;;;6308783;22;20484;-67
2022/05/06 05:02:26;;;;;;;2.55;1.20;;;17.20;44.10;;;;;;6308958;22;20018;-67
2022/05/06 05:04:57;;;;;;;2.83;1.15;;;17.20;45.20;;;;;;6336691;22;20018;-68
2022/05/06 05:07:25;;;;;;;3.90;1.10;;;17.20;44.30;;;;;;6310387;22;20075;-67
2022/05/06 05:09:52;;;;;;;3.05;1.23;;;17.20;44.70;;;;;;6309152;22;20003;-67
2022/05/06 05:12:19;;;;;;;5.07;1.88;;;17.20;45.10;;;;;;6308401;22;20038;-68
2022/05/06 05:14:46;;;;;;;3.83;1.70;;;17.20;42.70;;;;;;6309281;22;20329;-68
2022/05/06 05:17:13;;;;;;;4.43;1.55;;;17.20;43.30;;;;;;6309046;22;20007;-68
2022/05/06 05:19:42;;;;;;;3.47;1.30;;;17.20;43.10;;;;;;6283287;22;20007;-67
2022/05/06 05:22:09;;;;;;;5.95;1.42;;;17.30;43.00;;;;;;6309152;22;20111;-64
2022/05/06 05:24:36;;;;;;;5.10;1.20;;;17.30;43.50;;;;;;6305899;22;20034;-65
2022/05/06 05:27:04;;;;;;;8.35;2.08;;;17.30;43.90;;;;;;6331667;22;20010;-64
2022/05/06 05:29:31;;;;;;;4.60;1.17;;;17.20;44.50;;;;;;6332067;22;20003;-64
2022/05/06 05:31:58;;;;;;;2.15;1.10;;;17.20;45.10;;;;;;6332886;22;20011;-65
2022/05/06 05:34:26;;;;;;;3.20;1.33;;;17.20;45.90;;;;;;6332520;22;20389;-63
2022/05/06 05:36:53;;;;;;;4.50;1.15;;;17.20;45.20;;;;;;6332079;22;20076;-63
2022/05/06 05:39:20;;;;;;;4.57;1.10;;;17.30;44.70;;;;;;6332076;22;20014;-64
2022/05/06 05:41:47;;;;;;;2.38;1.08;;;17.30;43.90;;;;;;6305275;22;20037;-64
2022/05/06 05:49:45;;;;;;;2.80;1.40;;;17.30;44.80;;;;;;6332254;22;20463;-64
2022/05/06 05:52:12;;;;;;;2.05;1.10;;;17.30;46.90;;;;;;6331579;22;20007;-64
2022/05/06 05:54:39;;;;;;;3.17;1.13;;;17.30;46.10;;;;;;6331638;22;20085;-64
2022/05/06 05:57:07;;;;;;;2.83;1.10;;;17.30;44.40;;;;;;6332887;22;20029;-65
2022/05/06 05:59:34;;;;;;;5.38;1.33;;;17.20;44.20;;;;;;6333247;22;20002;-65
2022/05/06 06:02:02;;;;;;;4.72;1.30;;;17.20;44.60;;;;;;6306359;22;20357;-64
2022/05/06 06:04:29;;;;;;;4.13;1.25;;;17.20;43.50;;;;;;6303495;22;20027;-65
2022/05/06 06:06:56;;;;;;;7.78;1.48;;;17.30;43.50;;;;;;6334032;22;19999;-65
2022/05/06 06:09:24;;;;;;;5.50;1.42;;;17.30;43.30;;;;;;6306560;22;20114;-65
2022/05/06 06:11:52;;;;;;;3.60;1.13;;;17.20;43.20;;;;;;6333742;22;20015;-65
2022/05/06 06:14:19;;;;;;;2.58;1.15;;;17.20;43.90;;;;;;6334071;22;20003;-65
2022/05/06 06:16:47;;;;;;;2.67;1.20;;;17.20;43.90;;;;;;6334326;22;20029;-65
2022/05/06 06:19:15;;;;;;;3.40;1.10;;;17.20;44.70;;;;;;6334166;22;20745;-65
2022/05/06 06:21:43;;;;;;;5.88;1.20;;;17.20;44.70;;;;;;6333858;22;20475;-65
2022/05/06 06:24:10;;;;;;;6.95;1.50;;;17.20;44.50;;;;;;6333506;22;20002;-65
2022/05/06 06:26:37;;;;;;;5.28;1.45;;;17.20;45.50;;;;;;6306033;22;20003;-65
2022/05/06 06:29:05;;;;;;;7.50;1.40;;;17.20;46.40;;;;;;6306715;22;20014;-65
2022/05/06 06:31:33;;;;;;;3.90;1.20;;;17.20;46.40;;;;;;6333232;22;20003;-65
2022/05/06 06:34:00;;;;;;;5.13;1.20;;;17.20;46.50;;;;;;6333968;22;20081;-66
2022/05/06 06:36:27;;;;;;;4.25;1.00;;;17.20;46.30;;;;;;6333251;22;20052;-64
2022/05/06 06:38:55;;;;;;;3.95;1.30;;;17.20;46.30;;;;;;6332600;22;20356;-67
2022/05/06 06:41:22;;;;;;;7.82;1.17;;;17.20;46.90;;;;;;6306013;22;20003;-68
2022/05/06 06:43:49;;;;;;;4.28;1.10;;;17.20;47.40;;;;;;6304327;22;20018;-67
2022/05/06 06:46:17;;;;;;;2.58;0.90;;;17.10;47.20;;;;;;6304535;22;20005;-67
2022/05/06 06:48:44;;;;;;;2.65;1.10;;;17.10;46.60;;;;;;6331575;22;20429;-68
2022/05/06 06:51:11;;;;;;;5.88;1.30;;;17.10;46.20;;;;;;6331983;22;20010;-67
2022/05/06 06:53:38;;;;;;;2.25;1.20;;;17.10;46.10;;;;;;6332733;22;20013;-66
2022/05/06 06:56:05;;;;;;;4.03;1.30;;;17.10;46.70;;;;;;6332577;22;20006;-66
2022/05/06 06:58:33;;;;;;;2.72;1.17;;;17.10;46.50;;;;;;6333515;22;19995;-67
2022/05/06 07:01:00;;;;;;;5.63;1.40;;;17.10;46.70;;;;;;6331912;22;20344;-67
2022/05/06 07:03:27;;;;;;;1.60;1.05;;;17.10;47.10;;;;;;6333087;22;20390;-65
2022/05/06 07:14:10;;;;;;;4.93;1.40;;;17.10;47.90;;;;;;6333321;22;20471;-66
2022/05/06 07:16:39;;;;;;;3.20;1.50;;;17.00;48.50;;;;;;6305550;22;20048;-66
2022/05/06 07:19:06;;;;;;;2.30;1.40;;;17.00;49.40;;;;;;6333906;22;20002;-66
2022/05/06 07:21:34;;;;;;;4.00;1.70;;;17.00;49.40;;;;;;6333285;22;20448;-68
2022/05/06 07:24:01;;;;;;;3.67;1.50;;;17.00;50.10;;;;;;6305970;22;20042;-68
2022/05/06 07:26:28;;;;;;;2.42;1.20;;;17.00;50.90;;;;;;6333348;22;20006;-66
2022/05/06 07:28:55;;;;;;;7.28;1.77;;;16.90;50.10;;;;;;6331826;22;20010;-67
2022/05/06 07:31:22;;;;;;;5.22;1.80;;;16.90;50.20;;;;;;6279900;22;20079;-66
2022/05/06 07:33:50;;;;;;;6.30;1.65;;;16.90;49.90;;;;;;6305126;22;20026;-66
2022/05/06 07:36:17;;;;;;;2.47;1.40;;;16.90;50.90;;;;;;6330989;22;20432;-67
2022/05/06 07:38:44;;;;;;;2.50;1.80;;;16.80;50.60;;;;;;6331865;22;20003;-67
2022/05/06 07:41:12;;;;;;;4.28;1.70;;;16.80;51.30;;;;;;6333186;22;20074;-67
2022/05/06 07:43:39;;;;;;;4.32;1.90;;;16.80;51.40;;;;;;6305422;22;20138;-67
2022/05/06 07:46:09;;;;;;;3.20;1.50;;;16.80;51.90;;;;;;6305727;22;20009;-68
2022/05/06 07:48:37;;;;;;;3.58;1.77;;;16.80;52.00;;;;;;6304688;22;20029;-67
2022/05/06 07:51:05;;;;;;;4.75;2.10;;;16.70;51.90;;;;;;6305565;22;20345;-67
2022/05/06 07:53:32;;;;;;;6.68;1.98;;;16.80;52.30;;;;;;6320389;22;20007;-68
2022/05/06 07:56:01;;;;;;;2.50;1.70;;;16.80;53.20;;;;;;6305708;22;20045;-68
2022/05/06 07:58:28;;;;;;;5.45;2.08;;;16.70;53.50;;;;;;6305844;22;20040;-67
2022/05/06 08:00:56;;;;;;;5.32;2.28;;;16.70;53.80;;;;;;6305834;22;20375;-67
2022/05/06 08:06:08;;;;;;;4.22;2.10;;;16.70;55.80;;;;;;6333146;22;20071;-67
2022/05/06 08:08:36;;;;;;;10.93;2.88;;;16.70;55.10;;;;;;6333263;22;20009;-67
2022/05/06 08:11:03;;;;;;;8.57;3.03;;;16.60;56.60;;;;;;6333233;22;20039;-66
2022/05/06 08:13:30;;;;;;;9.07;3.20;;;16.50;57.30;;;;;;6333210;22;20003;-67
2022/05/06 08:15:57;;;;;;;18.02;4.13;;;16.50;57.50;;;;;;6337734;22;20002;-67
2022/05/06 08:18:24;;;;;;;17.95;4.75;;;16.40;57.90;;;;;;6280802;22;20007;-68
2022/05/06 08:20:52;;;;;;;9.90;4.05;;;16.40;57.80;;;;;;6306018;22;20003;-69
2022/05/06 08:23:21;;;;;;;13.48;3.88;;;16.30;58.70;;;;;;6332560;22;20015;-71
2022/05/06 08:25:49;;;;;;;8.52;3.38;;;16.30;59.20;;;;;;6332856;22;19998;-68
2022/05/06 08:28:17;;;;;;;11.52;3.47;;;16.20;59.30;;;;;;6332690;22;20379;-70
2022/05/06 08:30:44;;;;;;;9.07;3.20;;;16.20;58.10;;;;;;6332692;22;19995;-69
2022/05/06 08:33:11;;;;;;;9.93;3.55;;;16.20;58.70;;;;;;6305307;22;20007;-68
2022/05/06 08:35:39;;;;;;;6.72;3.15;;;16.20;60.10;;;;;;6332896;22;20013;-68
2022/05/06 08:38:08;;;;;;;12.45;2.83;;;16.20;59.40;;;;;;6333578;22;20003;-68
2022/05/06 08:40:38;;;;;;;8.80;2.75;;;16.20;59.00;;;;;;6332642;22;20114;-71
2022/05/06 08:43:05;;;;;;;;;;;16.20;61.00;;;;;;6333721;22;20011;-70
2022/05/06 08:51:05;;;;;;;7.20;3.65;;;16.20;64.40;;;;;;6287855;22;20506;-70
2022/05/06 08:53:37;;;;;;;9.20;3.45;;;16.20;64.90;;;;;;6332263;22;20016;-70
2022/05/06 08:56:04;;;;;;;7.20;3.33;;;16.20;64.80;;;;;;6305433;22;19994;-70
2022/05/06 08:58:35;;;;;;;9.30;3.13;;;16.20;64.70;;;;;;6332466;22;20025;-70
2022/05/06 09:01:06;;;;;;;7.97;3.25;;;16.10;63.50;;;;;;6305735;22;20033;-70
2022/05/06 09:03:34;;;;;;;10.52;3.45;;;16.10;63.70;;;;;;6329891;22;20038;-70
2022/05/06 09:06:01;;;;;;;9.82;3.30;;;16.10;63.50;;;;;;6305132;22;20397;-69
2022/05/06 09:08:44;;;;;;;6.68;2.70;;;16.10;62.90;;;;;;6332731;22;19999;-69
2022/05/06 09:11:11;;;;;;;8.50;3.72;;;16.00;61.50;;;;;;6332701;22;20002;-69
2022/05/06 09:13:58;;;;;;;8.25;3.92;;;15.90;62.90;;;;;;6304931;22;20003;-69
2022/05/06 09:16:41;;;;;;;12.25;4.00;;;15.80;64.40;;;;;;6332970;22;20030;-69
2022/05/06 09:19:21;;;;;;;8.70;4.00;;;15.70;64.10;;;;;;6308939;22;20053;-68
2022/05/06 09:22:17;;;;;;;11.63;4.80;;;15.70;63.60;;;;;;6306562;22;20021;-68
2022/05/06 09:24:49;;;;;;;9.18;4.30;;;15.70;64.90;;;;;;6307113;22;20086;-69
2022/05/06 09:27:17;;;;;;;8.98;3.75;;;15.60;65.20;;;;;;6332709;22;20006;-67
2022/05/06 09:29:51;;;;;;;8.13;3.70;;;15.60;63.40;;;;;;6305376;22;20034;-67
2022/05/06 09:32:24;;;;;;;10.48;4.50;;;15.60;63.10;;;;;;6333441;22;20006;-68
2022/05/06 09:35:21;;;;;;;7.18;3.90;;;15.70;64.20;;;;;;6307019;22;20030;-68
2022/05/06 09:37:48;;;;;;;9.35;3.50;;;15.70;63.30;;;;;;6275742;22;20037;-68
2022/05/06 09:40:20;;;;;;;9.57;3.45;;;15.70;63.40;;;;;;6334801;22;20072;-69
2022/05/06 09:43:00;;;;;;;7.63;3.60;;;15.60;63.80;;;;;;6334474;22;20071;-70
2022/05/06 09:45:39;;;;;;;8.87;3.70;;;15.60;63.80;;;;;;6334400;22;20009;-69
2022/05/06 09:48:11;;;;;;;9.32;3.83;;;15.50;64.60;;;;;;6334062;22;20395;-69
2022/05/06 09:50:42;;;;;;;11.38;3.40;;;15.50;65.30;;;;;;6282932;22;20510;-69
2022/05/06 09:53:11;;;;;;;8.18;4.35;;;15.40;66.30;;;;;;6307209;22;20011;-69
2022/05/06 09:55:44;;;;;;;7.30;3.17;;;15.40;67.40;;;;;;6307993;22;19999;-69
2022/05/06 09:58:12;;;;;;;8.25;3.90;;;15.40;66.60;;;;;;6307592;22;20007;-69
2022/05/06 10:00:39;;;;;;;6.65;3.38;;;15.40;67.00;;;;;;6334212;22;20007;-69
2022/05/06 10:03:07;;;;;;;9.85;3.75;;;15.30;66.90;;;;;;6306161;22;20011;-69
2022/05/06 10:05:36;;;;;;;7.07;3.38;;;15.30;67.10;;;;;;6331794;22;20472;-69
2022/05/06 10:08:23;;;;;;;9.32;3.55;;;15.40;66.80;;;;;;6334469;22;20003;-69
2022/05/06 10:11:03;;;;;;;9.88;3.78;;;15.40;65.30;;;;;;6306883;22;20082;-69
2022/05/06 10:13:32;;;;;;;9.75;3.35;;;15.40;64.10;;;;;;6280446;22;20003;-68
2022/05/06 10:15:59;;;;;;;8.87;3.90;;;15.40;63.10;;;;;;6281542;22;20467;-69
2022/05/06 10:18:43;;;;;;;11.30;3.75;;;15.40;62.60;;;;;;6281365;22;20271;-69
2022/05/06 10:21:11;;;;;;;9.05;3.95;;;15.40;61.90;;;;;;6333916;22;20022;-68
2022/05/06 10:23:54;;;;;;;10.65;3.95;;;15.40;61.30;;;;;;6333716;22;20047;-68
2022/05/06 10:26:40;;;;;;;12.98;4.00;;;15.40;61.20;;;;;;6334542;22;20040;-67
2022/05/06 10:35:15;;;;;;;10.43;3.67;;;15.30;60.10;;;;;;6333769;22;20029;-69
2022/05/06 10:37:45;;;;;;;11.20;4.22;;;15.30;59.40;;;;;;6252432;22;20455;-69
2022/05/06 10:40:25;;;;;;;9.73;3.83;;;15.30;59.50;;;;;;6306853;22;20035;-69
2022/05/06 10:42:52;;;;;;;9.38;3.80;;;15.30;59.60;;;;;;6333580;22;20019;-69
2022/05/06 10:45:27;;;;;;;7.75;3.70;;;15.30;59.30;;;;;;6334168;22;20006;-69
2022/05/06 10:47:54;;;;;;;8.75;3.55;;;15.30;58.90;;;;;;6333577;22;20042;-69
2022/05/06 10:50:25;;;;;;;6.68;3.50;;;15.30;59.00;;;;;;6333140;22;20025;-69
2022/05/06 10:52:53;;;;;;;7.43;4.03;;;15.30;59.10;;;;;;6333312;22;20053;-69
2022/05/06 10:55:21;;;;;;;11.25;4.30;;;15.30;59.40;;;;;;6333556;22;20003;-69
2022/05/06 10:57:49;;;;;;;8.88;4.32;;;15.20;59.60;;;;;;6333715;22;20021;-69
2022/05/06 11:00:17;;;;;;;12.80;3.70;;;15.20;59.40;;;;;;6333677;22;20006;-69
2022/05/06 11:02:44;;;;;;;11.27;3.58;;;15.20;59.90;;;;;;6333159;22;20029;-69
2022/05/06 11:05:15;;;;;;;8.20;3.90;;;15.20;59.00;;;;;;6303165;22;20374;-69
2022/05/06 11:07:44;;;;;;;8.25;3.78;;;15.20;59.00;;;;;;6280804;22;19999;-69
2022/05/06 11:10:16;;;;;;;10.65;3.47;;;15.20;59.10;;;;;;6334257;22;20044;-70
2022/05/06 11:12:45;;;;;;;7.47;3.28;;;15.10;58.60;;;;;;6333285;22;20455;-69
2022/05/06 11:15:20;;;;;;;4.95;2.60;;;15.00;58.50;;;;;;6306001;22;20097;-69
2022/05/06 11:17:48;;;;;;;5.78;2.63;;;15.10;58.40;;;;;;6306244;22;20030;-69
2022/05/06 11:20:28;;;;;;;5.00;2.60;;;15.00;58.00;;;;;;6333540;22;20337;-69
2022/05/06 11:23:03;;;;;;;5.78;2.22;;;15.00;57.30;;;;;;6333861;22;20007;-69
2022/05/06 11:25:34;;;;;;;4.18;2.30;;;15.00;57.20;;;;;;6305978;22;20017;-69
2022/05/06 11:28:21;;;;;;;7.47;2.28;;;15.00;57.40;;;;;;6305773;22;20009;-69
2022/05/06 11:30:53;;;;;;;4.60;2.08;;;14.90;57.50;;;;;;6333193;22;19999;-69
2022/05/06 11:33:24;;;;;;;4.80;1.90;;;14.90;57.70;;;;;;6333173;22;20002;-69
2022/05/06 11:35:50;;;;;;;;;;;14.80;57.60;;;;;;6256231;22;20011;-69
2022/05/06 11:38:39;;;;;;;2.90;1.83;;;14.90;57.40;;;;;;6333974;22;19937;-69
2022/05/06 11:41:13;;;;;;;4.22;1.95;;;14.80;57.50;;;;;;6306487;22;20603;-69
2022/05/06 11:43:41;;;;;;;3.78;2.00;;;14.80;58.80;;;;;;6333815;22;20035;-69
2022/05/06 11:49:01;;;;;;;3.60;1.90;;;14.80;59.70;;;;;;6311587;22;20456;-69
2022/05/06 11:51:37;;;;;;;1.98;1.73;;;14.70;59.90;;;;;;6333247;22;20123;-69
2022/05/06 11:54:04;;;;;;;4.70;1.90;;;14.70;60.00;;;;;;6307853;22;20003;-69
2022/05/06 11:56:31;;;;;;;3.67;1.80;;;14.70;59.90;;;;;;6306509;22;20014;-69
2022/05/06 11:58:59;;;;;;;3.95;1.95;;;14.70;59.50;;;;;;6281237;22;20011;-69
2022/05/06 12:01:34;;;;;;;3.17;1.50;;;14.60;59.60;;;;;;6306158;22;20011;-68
2022/05/06 12:04:06;;;;;;;5.15;1.70;;;14.60;59.30;;;;;;6303792;22;20010;-69
2022/05/06 12:06:37;;;;;;;3.25;1.63;;;14.50;59.00;;;;;;6333707;22;20069;-69
2022/05/06 12:09:21;;;;;;;;;;;14.60;59.30;;;;;;6334058;22;20025;-69
2022/05/06 12:12:04;;;;;;;3.95;1.80;;;14.50;59.30;;;;;;6305949;22;19906;-69
2022/05/06 12:14:31;;;;;;;4.00;1.77;;;14.50;59.30;;;;;;6333071;22;20032;-69
2022/05/06 12:17:02;;;;;;;4.40;2.05;;;14.40;59.70;;;;;;6333568;22;20432;-69
2022/05/06 12:19:43;;;;;;;3.97;2.00;;;14.30;60.90;;;;;;6333874;22;20431;-69
2022/05/06 12:22:12;;;;;;;6.93;2.40;;;14.30;61.40;;;;;;6306210;22;20014;-69
2022/05/06 12:24:47;;;;;;;5.20;2.10;;;14.20;61.90;;;;;;6305635;22;20002;-68
2022/05/06 12:27:24;;;;;;;8.93;1.98;;;14.20;61.40;;;;;;6305280;22;20007;-68
2022/05/06 12:29:51;;;;;;;5.03;1.80;;;14.20;61.40;;;;;;6333468;22;19999;-68
2022/05/06 12:32:18;;;;;;;3.45;2.10;;;14.20;61.60;;;;;;6333279;22;20518;-68
2022/05/06 12:34:46;;;;;;;2.80;1.58;;;14.20;61.20;;;;;;6332928;22;20007;-68
2022/05/06 12:37:17;;;;;;;8.13;2.13;;;14.20;60.70;;;;;;6305074;22;20650;-68
2022/05/06 12:39:45;;;;;;;5.90;1.98;;;14.20;60.60;;;;;;6333313;22;20006;-67
2022/05/06 12:42:21;;;;;;;4.63;1.70;;;14.20;60.80;;;;;;6333219;22;20013;-68
2022/05/06 12:44:48;;;;;;;7.50;1.73;;;14.20;60.60;;;;;;6332822;22;20011;-68
2022/05/06 12:50:09;;;;;;;3.38;1.73;;;14.20;61.30;;;;;;6332725;22;20064;-67
2022/05/06 12:52:37;;;;;;;6.78;1.80;;;14.20;60.20;;;;;;6306537;22;20053;-67
2022/05/06 12:55:05;;;;;;;3.65;1.70;;;14.10;60.30;;;;;;6306015;22;20019;-67
2022/05/06 12:57:32;;;;;;;3.45;1.40;;;14.10;60.90;;;;;;6333314;22;20005;-67
2022/05/06 12:59:59;;;;;;;3.65;1.63;;;14.10;60.70;;;;;;6332898;22;20026;-68
2022/05/06 13:02:26;;;;;;;3.00;1.60;;;14.00;61.40;;;;;;6332926;22;20014;-69
2022/05/06 13:04:56;;;;;;;5.35;1.80;;;14.00;61.50;;;;;;6331010;22;20003;-68
2022/05/06 13:07:23;;;;;;;4.55;1.50;;;13.90;62.90;;;;;;6307514;22;20003;-68
2022/05/06 13:09:50;;;;;;;2.20;1.60;;;13.90;62.20;;;;;;6307401;22;20317;-69
2022/05/06 13:12:18;;;;;;;3.47;1.83;;;13.90;62.40;;;;;;6334343;22;20003;-67
2022/05/06 13:14:45;;;;;;;4.25;1.50;;;13.90;62.50;;;;;;6337180;22;20140;-68
2022/05/06 13:17:12;;;;;;;2.10;1.50;;;13.80;63.00;;;;;;6338769;22;20011;-69
2022/05/06 13:19:39;;;;;;;2.53;1.50;;;13.80;62.90;;;;;;6338598;22;20052;-69
2022/05/06 13:22:07;;;;;;;5.35;1.70;;;13.80;63.00;;;;;;6311119;22;20010;-69
2022/05/06 13:24:34;;;;;;;2.25;1.42;;;13.70;62.40;;;;;;6338688;22;20023;-69
2022/05/06 13:27:01;;;;;;;3.75;1.80;;;13.70;63.40;;;;;;6338965;22;20026;-69
2022/05/06 13:29:28;;;;;;;3.72;1.70;;;13.70;62.90;;;;;;6285776;22;20372;-69
2022/05/06 13:31:55;;;;;;;2.63;1.38;;;13.70;62.30;;;;;;6311317;22;20006;-69
2022/05/06 13:34:22;;;;;;;2.50;1.55;;;13.70;62.30;;;;;;6310827;22;20006;-70
2022/05/06 13:36:50;;;;;;;5.95;1.30;;;13.70;62.10;;;;;;6311259;22;20051;-69
2022/05/06 13:39:17;;;;;;;3.10;1.50;;;13.70;62.00;;;;;;6311145;22;20003;-69
2022/05/06 13:41:44;;;;;;;3.70;1.50;;;13.60;62.00;;;;;;6338180;22;20004;-69
2022/05/06 13:44:11;;;;;;;3.63;1.58;;;13.60;62.20;;;;;;6311061;22;20015;-69
2022/05/06 13:46:38;;;;;;;2.67;1.40;;;13.60;62.70;;;;;;6311494;22;19999;-69